| time (UTC) | temp F | wind direction | speed knots | gust knots | rain 1hr in | rain 24hr in | rain mn in | humidity % | barometer mb |
| 20260903163052 | 58 | 0 | 0.0 | 0.0 | 0.00 | 0.00 | 0.00 | 60 | 1023.2 |
| 20260903161549 | 58 | 0 | 0.0 | 0.0 | 0.00 | 0.00 | 0.00 | 60 | 1023.3 |
| 20260903160055 | 59 | 0 | 0.0 | 0.0 | 0.00 | 0.00 | 0.00 | 59 | 1023.3 |
| 20260903154558 | 59 | 0 | 0.0 | 0.0 | 0.00 | 0.00 | 0.00 | 58 | 1023.4 |
| 20260903153059 | 60 | 0 | 0.0 | 0.0 | 0.00 | 0.00 | 0.00 | 56 | 1023.4 |
| 20260903151557 | 61 | 0 | 0.0 | 0.0 | 0.00 | 0.00 | 0.00 | 56 | 1023.4 |
| 20260903150111 | 61 | 0 | 0.0 | 0.0 | 0.00 | 0.00 | 0.00 | 55 | 1023.5 |
| 20260903144552 | 62 | 0 | 0.0 | 0.0 | 0.00 | 0.00 | 0.00 | 55 | 1023.5 |
| 20260903143055 | 62 | 0 | 0.0 | 0.0 | 0.00 | 0.00 | 0.00 | 53 | 1023.5 |
| 20260903141555 | 63 | 0 | 0.0 | 0.0 | 0.00 | 0.00 | 0.00 | 52 | 1023.6 |
| 20260903140057 | 63 | 0 | 0.0 | 0.0 | 0.00 | 0.00 | 0.00 | 51 | 1023.7 |
| 20260903134552 | 64 | 0 | 0.0 | 0.0 | 0.00 | 0.00 | 0.00 | 51 | 1023.5 |
| 20260903133054 | 64 | 0 | 0.0 | 0.0 | 0.00 | 0.00 | 0.00 | 50 | 1023.6 |
| 20260903131601 | 64 | 0 | 0.0 | 0.0 | 0.00 | 0.00 | 0.00 | 50 | 1023.5 |
| 20260903130112 | 64 | 0 | 0.0 | 0.0 | 0.00 | 0.00 | 0.00 | 49 | 1023.6 |
| 20260903124557 | 64 | 0 | 0.0 | 0.0 | 0.00 | 0.00 | 0.00 | 49 | 1023.8 |
| 20260903123058 | 65 | 0 | 0.0 | 0.0 | 0.00 | 0.00 | 0.00 | 48 | 1023.9 |
| 20260903121554 | 65 | 0 | 0.0 | 0.0 | 0.00 | 0.00 | 0.00 | 47 | 1023.9 |
| 20260903120055 | 66 | 0 | 0.0 | 0.0 | 0.00 | 0.00 | 0.00 | 47 | 1023.9 |
| 20260903114551 | 66 | 0 | 0.0 | 0.0 | 0.00 | 0.00 | 0.00 | 46 | 1023.9 |
| 20260903113056 | 67 | 0 | 0.0 | 0.0 | 0.00 | 0.00 | 0.00 | 46 | 1023.8 |
| 20260903111623 | 68 | 0 | 0.0 | 5.2 | 0.00 | 0.00 | 0.00 | 44 | 1023.7 |
| 20260903110110 | 68 | 213 | 1.7 | 5.2 | 0.00 | 0.00 | 0.00 | 44 | 1023.4 |
| 20260903104630 | 68 | 215 | 2.6 | 7.0 | 0.00 | 0.00 | 0.00 | 44 | 1023.5 |
| 20260903103051 | 68 | 0 | 0.0 | 0.0 | 0.00 | 0.00 | 0.00 | 44 | 1023.3 |
| 20260903101557 | 69 | 0 | 0.0 | 0.0 | 0.00 | 0.00 | 0.00 | 44 | 1023.2 |
| 20260903100056 | 69 | 0 | 0.0 | 0.0 | 0.00 | 0.00 | 0.00 | 43 | 1023.1 |
| 20260903094603 | 69 | 0 | 0.0 | 0.0 | 0.00 | 0.00 | 0.00 | 43 | 1023.0 |
| 20260903093056 | 70 | 0 | 0.0 | 0.0 | 0.00 | 0.00 | 0.00 | 43 | 1022.9 |
| 20260903091556 | 70 | 0 | 0.0 | 0.0 | 0.00 | 0.00 | 0.00 | 42 | 1022.8 |
| 20260903090055 | 71 | 0 | 0.0 | 0.0 | 0.00 | 0.00 | 0.00 | 41 | 1022.5 |
| 20260903084600 | 72 | 0 | 0.0 | 0.0 | 0.00 | 0.00 | 0.00 | 40 | 1022.4 |
| 20260903083057 | 72 | 0 | 0.0 | 0.0 | 0.00 | 0.00 | 0.00 | 39 | 1022.1 |
| 20260903081555 | 73 | 0 | 0.0 | 0.0 | 0.00 | 0.00 | 0.00 | 38 | 1022.0 |
| 20260903080057 | 75 | 0 | 0.0 | 0.0 | 0.00 | 0.00 | 0.00 | 37 | 1022.0 |
| 20260903074602 | 76 | 0 | 0.0 | 7.8 | 0.00 | 0.00 | 0.00 | 35 | 1022.0 |
| 20260903073148 | 77 | 210 | 3.5 | 7.8 | 0.00 | 0.00 | 0.00 | 34 | 1022.0 |
| 20260903071556 | 78 | 206 | 6.1 | 13.0 | 0.00 | 0.00 | 0.00 | 33 | 1021.9 |
| 20260903070051 | 78 | 190 | 5.2 | 13.0 | 0.00 | 0.00 | 0.00 | 33 | 1021.9 |
| 20260903064556 | 79 | 229 | 6.1 | 15.6 | 0.00 | 0.00 | 0.00 | 32 | 1021.7 |
| 20260903063055 | 80 | 246 | 7.0 | 15.6 | 0.00 | 0.00 | 0.00 | 32 | 1021.6 |
| 20260903061602 | 80 | 219 | 7.8 | 13.9 | 0.00 | 0.00 | 0.00 | 32 | 1021.6 |
| 20260903060104 | 80 | 223 | 5.2 | 12.2 | 0.00 | 0.00 | 0.00 | 33 | 1021.6 |
| 20260903054557 | 81 | 228 | 5.2 | 12.2 | 0.00 | 0.00 | 0.00 | 32 | 1021.6 |
| 20260903053108 | 81 | 232 | 4.3 | 14.8 | 0.00 | 0.00 | 0.00 | 33 | 1021.6 |
| 20260903051557 | 81 | 212 | 3.5 | 12.2 | 0.00 | 0.00 | 0.00 | 34 | 1021.7 |
| 20260903050055 | 82 | 207 | 5.2 | 11.3 | 0.00 | 0.00 | 0.00 | 34 | 1021.8 |
| 20260903044555 | 82 | 254 | 4.3 | 11.3 | 0.00 | 0.00 | 0.00 | 34 | 1021.7 |
| 20260903043059 | 82 | 232 | 6.1 | 18.2 | 0.00 | 0.00 | 0.00 | 34 | 1022.2 |
| 20260903041558 | 82 | 191 | 5.2 | 12.2 | 0.00 | 0.00 | 0.00 | 36 | 1022.2 |
| 20260903040106 | 81 | 188 | 5.2 | 13.0 | 0.00 | 0.00 | 0.00 | 36 | 1022.3 |
| 20260903034551 | 81 | 213 | 5.2 | 13.0 | 0.00 | 0.00 | 0.00 | 37 | 1022.6 |
| 20260903033055 | 81 | 198 | 7.0 | 14.8 | 0.00 | 0.00 | 0.00 | 36 | 1022.8 |
| 20260903031553 | 81 | 196 | 7.0 | 16.5 | 0.00 | 0.00 | 0.00 | 37 | 1022.9 |
| 20260903030109 | 81 | 188 | 7.8 | 15.6 | 0.00 | 0.00 | 0.00 | 37 | 1023.1 |
| 20260903024555 | 80 | 187 | 5.2 | 14.8 | 0.00 | 0.00 | 0.00 | 38 | 1023.2 |
| 20260903023050 | 80 | 223 | 7.0 | 13.9 | 0.00 | 0.00 | 0.00 | 36 | 1023.4 |
| 20260903021551 | 80 | 232 | 3.5 | 13.9 | 0.00 | 0.00 | 0.00 | 40 | 1023.7 |
| 20260903020053 | 78 | 227 | 3.5 | 12.2 | 0.00 | 0.00 | 0.00 | 42 | 1024.0 |
| 20260903014559 | 78 | 212 | 5.2 | 15.6 | 0.00 | 0.00 | 0.00 | 43 | 1024.2 |
| 20260903013057 | 78 | 229 | 4.3 | 13.9 | 0.00 | 0.00 | 0.00 | 42 | 1024.5 |
| 20260903011607 | 77 | 227 | 6.1 | 13.0 | 0.00 | 0.00 | 0.00 | 43 | 1024.7 |
| 20260903010109 | 76 | 245 | 5.2 | 13.9 | 0.00 | 0.00 | 0.00 | 45 | 1024.9 |
| 20260903004549 | 75 | 246 | 5.2 | 13.9 | 0.00 | 0.00 | 0.00 | 47 | 1025.2 |
| 20260903003058 | 75 | 360 | 7.0 | 13.0 | 0.00 | 0.00 | 0.00 | 47 | 1025.4 |
| 20260903001550 | 74 | 0 | 4.3 | 11.3 | 0.00 | 0.00 | 0.00 | 51 | 1025.6 |
| 20260903000100 | 72 | 264 | 1.7 | 8.7 | 0.00 | 0.00 | 0.00 | 55 | 1025.7 |
| 20260902234556 | 70 | 219 | 4.3 | 11.3 | 0.00 | 0.00 | 0.00 | 56 | 1025.7 |
| 20260902233052 | 70 | 252 | 4.3 | 13.9 | 0.00 | 0.00 | 0.00 | 55 | 1025.7 |
| 20260902231607 | 69 | 217 | 4.3 | 13.9 | 0.00 | 0.00 | 0.00 | 58 | 1025.7 |
| 20260902230059 | 66 | 215 | 7.8 | 15.6 | 0.00 | 0.00 | 0.00 | 60 | 1025.6 |
| 20260902224602 | 65 | 226 | 6.1 | 15.6 | 0.00 | 0.00 | 0.00 | 63 | 1025.7 |
| 20260902223058 | 64 | 213 | 7.8 | 18.2 | 0.00 | 0.00 | 0.00 | 64 | 1025.7 |
| 20260902221618 | 63 | 360 | 6.1 | 13.9 | 0.00 | 0.00 | 0.00 | 64 | 1025.5 |
| 20260902220059 | 62 | 216 | 3.5 | 11.3 | 0.00 | 0.00 | 0.00 | 65 | 1025.3 |
| 20260902214558 | 61 | 270 | 4.3 | 9.6 | 0.00 | 0.00 | 0.00 | 66 | 1025.4 |
| 20260902213055 | 60 | 247 | 3.5 | 11.3 | 0.00 | 0.00 | 0.00 | 66 | 1025.2 |
| 20260902211553 | 59 | 0 | 2.6 | 8.7 | 0.00 | 0.00 | 0.00 | 68 | 1025.0 |
| 20260902210058 | 58 | 227 | 2.6 | 8.7 | 0.00 | 0.00 | 0.00 | 69 | 1024.8 |
| 20260902204557 | 56 | 254 | 0.0 | 4.3 | 0.00 | 0.00 | 0.00 | 70 | 1024.6 |
| 20260902203107 | 55 | 219 | 2.6 | 7.8 | 0.00 | 0.00 | 0.00 | 71 | 1024.5 |
| 20260902201558 | 55 | 206 | 2.6 | 6.1 | 0.00 | 0.00 | 0.00 | 71 | 1024.4 |
| 20260902200056 | 55 | 218 | 2.6 | 7.0 | 0.00 | 0.00 | 0.00 | 71 | 1024.4 |
| 20260902194555 | 55 | 0 | 0.9 | 7.0 | 0.00 | 0.00 | 0.00 | 70 | 1024.2 |
| 20260902193101 | 55 | 219 | 2.6 | 7.8 | 0.00 | 0.00 | 0.00 | 70 | 1024.0 |
| 20260902191619 | 55 | 215 | 2.6 | 7.0 | 0.00 | 0.00 | 0.00 | 70 | 1023.7 |
| 20260902190100 | 55 | 0 | 1.7 | 6.1 | 0.00 | 0.00 | 0.00 | 71 | 1023.5 |
| 20260902184625 | 54 | 223 | 2.6 | 7.0 | 0.00 | 0.00 | 0.00 | 72 | 1023.5 |
| 20260902183124 | 54 | 0 | 0.0 | 0.0 | 0.00 | 0.00 | 0.00 | 73 | 1023.4 |
| 20260902181605 | 54 | 0 | 0.0 | 0.0 | 0.00 | 0.00 | 0.00 | 73 | 1023.3 |
| 20260902180054 | 54 | 0 | 0.0 | 0.0 | 0.00 | 0.00 | 0.00 | 73 | 1023.4 |
| 20260902174600 | 53 | 0 | 0.0 | 0.0 | 0.00 | 0.00 | 0.00 | 73 | 1023.5 |
| 20260902173112 | 54 | 0 | 0.0 | 0.0 | 0.00 | 0.00 | 0.00 | 72 | 1023.5 |
| 20260902171608 | 54 | 0 | 0.0 | 0.0 | 0.00 | 0.00 | 0.00 | 72 | 1023.6 |
| 20260902170058 | 54 | 0 | 0.0 | 0.0 | 0.00 | 0.00 | 0.00 | 70 | 1023.7 |
| 20260902164602 | 55 | 0 | 0.0 | 0.0 | 0.00 | 0.00 | 0.00 | 69 | 1023.6 |